AirNav   Bose Proflight and A20 aviation headeets
 
 276 users online  

OG50 Cottonwood Creek Ranch Airport
Harper, Oregon, USA

GOING TO HARPER?


FAA INFORMATION EFFECTIVE 31 JANUARY 2019

Location

FAA Identifier: OG50
Lat/Long: 43-50-50.0000N / 117-34-27.0000W
43-50.833333N / 117-34.450000W
43.8472222 / -117.5741667
(estimated)
Elevation: 2555 ft. / 779 m
From city: 2 miles E of HARPER, OR
Time zone: UTC -8 (UTC -7 during Daylight Saving Time)
Zip code: 97906

Airport Operations

Airport use: Private use. Permission required prior to landing
Activation date: 02/2005
Control tower: no
ARTCC: SALT LAKE CITY CENTER
FSS: MC MINNVILLE FLIGHT SERVICE STATION
Attendance: UNATNDD
Wind indicator: yes
Segmented circle: no

Nearby radio navigation aids

NDB name  Hdg/Dist  Freq  Var  ID
ONTARIO234/26.530513EONO --- -. ---

Airport Services

Runway Information

Runway 16/34

Dimensions: 2050 x 60 ft. / 625 x 18 m
Surface: dirt
RUNWAY 16  RUNWAY 34
Traffic pattern: rightright
Obstructions: none50 ft. bldg, 50 ft. from runway

Airport Ownership and Management from official FAA records

Ownership: Privately-owned
Owner: SHAWN COLEMAN
1481 ARATA WAY
ONTARIO, OR 97914
Phone 541-212-5405
Manager: SHAWN COLEMAN
1481 ARATA WAY
ONTARIO, OR 97914
Phone 541-212-5405

Airport Operational Statistics

Aircraft based on the field: 2
Single engine airplanes: 2
    

Instrument Procedures

There are no published instrument procedures at OG50.

Some nearby airports with instrument procedures:

KONO - Ontario Municipal Airport (26 nm NE)
S87 - Weiser Municipal Airport (34 nm NE)
KEUL - Caldwell Industrial Airport (42 nm E)
KMAN - Nampa Municipal Airport (48 nm E)
KBKE - Baker City Municipal Airport (60 nm N)
 
Loc | Ops | Rwys | IFR | FBO | Links
Com | Nav | Svcs | Stats | Notes
Area around OG50 (Cottonwood Creek Ranch Airport)
 
Road maps at: MapQuest Bing Google
 
Aerial photo
WARNING: Photo may not be current or correct
Aerial photo of OG50 (Cottonwood Creek Ranch Airport)
Do you have a better or more recent aerial photo of Cottonwood Creek Ranch Airport that you would like to share? If so, please send us your photo.

 
Sectional chart

 
Airport distance calculator
Flying to Cottonwood Creek Ranch Airport? Find the distance to fly.

From to OG50

Sunrise and sunset
Times for 23-Feb-2019
 Local
(UTC-8)
 Zulu
(UTC)
Morning civil twilight06:0914:09
Sunrise06:3814:38
Sunset17:3001:30
Evening civil twilight17:5901:59

Current date and time
Zulu (UTC)  23-Feb-2019 09:56:32
Local (UTC-8)  23-Feb-2019 01:56:32
 
METAR
KONO 
26nm NE 
230853Z AUTO 12003KT 10SM OVC100 01/M06 A3007 RMK AO2 SLP199 T00061061 56005
KEUL 
44nm E 
230856Z AUTO 12010KT 10SM FEW060 SCT085 BKN120 M01/M06 A3006 RMK AO2 SLP199 T10061061 55006 FZRANO
KMAN 
48nm E 
230935Z AUTO 13010G16KT 10SM BKN060 OVC075 M01/M05 A3005 RMK A01
TAF
KEUL 
44nm E 
230532Z 2306/2406 11007KT P6SM BKN070 FM230900 13011KT P6SM VCSH BKN040 OVC070 TEMPO 2312/2315 4SM -SN BR OVC020 FM231900 15012KT P6SM VCSH BKN030 FM232300 14010KT 6SM -SHRASN BR OVC030
NOTAMs
Click for the latest NOTAMs
NOTAMs are issued by the DoD/FAA and will open in a separate window not controlled by AirNav.

 

 
 

Would you like to see your business listed on this page?

 If your business provides an interesting product or service to pilots, flight crews, aircraft, or users of the Cottonwood Creek Ranch Airport, you should consider listing it here.  To start the listing process, click on the button below
 
Add a business
 

Other Pages about Cottonwood Creek Ranch Airport

Update a link
 
Copyright © AirNav, LLC. All rights reserved. Privacy Policy  Contact